sensor_id;sensor_type;location;lat;lon;timestamp;P1;durP1;ratioP1;P2;durP2;ratioP2
22677;SDS011;26259;50.214;18.620;2022-09-09T00:11:45;89.37;;;33.30;;
22677;SDS011;26259;50.214;18.620;2022-09-09T00:19:59;117.87;;;35.90;;
22677;SDS011;26259;50.214;18.620;2022-09-09T00:22:35;77.83;;;32.13;;
22677;SDS011;26259;50.214;18.620;2022-09-09T00:25:12;119.33;;;37.27;;
22677;SDS011;26259;50.214;18.620;2022-09-09T00:27:46;138.93;;;39.37;;
22677;SDS011;26259;50.214;18.620;2022-09-09T00:30:23;137.73;;;38.73;;
22677;SDS011;26259;50.214;18.620;2022-09-09T00:33:00;358.93;;;45.13;;
22677;SDS011;26259;50.214;18.620;2022-09-09T00:35:36;78.57;;;31.37;;
22677;SDS011;26259;50.214;18.620;2022-09-09T00:43:24;95.93;;;35.80;;
22677;SDS011;26259;50.214;18.620;2022-09-09T00:48:35;271.07;;;43.20;;
22677;SDS011;26259;50.214;18.620;2022-09-09T00:51:23;115.30;;;36.47;;
22677;SDS011;26259;50.214;18.620;2022-09-09T00:54:26;155.63;;;39.43;;
22677;SDS011;26259;50.214;18.620;2022-09-09T01:02:59;86.00;;;33.77;;
22677;SDS011;26259;50.214;18.620;2022-09-09T01:05:53;87.60;;;33.87;;
22677;SDS011;26259;50.214;18.620;2022-09-09T01:08:01;80.63;;;33.63;;
22677;SDS011;26259;50.214;18.620;2022-09-09T01:10:39;87.53;;;34.07;;
22677;SDS011;26259;50.214;18.620;2022-09-09T01:13:29;132.57;;;39.97;;
22677;SDS011;26259;50.214;18.620;2022-09-09T01:15:58;206.90;;;44.67;;
22677;SDS011;26259;50.214;18.620;2022-09-09T01:18:49;115.33;;;38.73;;
22677;SDS011;26259;50.214;18.620;2022-09-09T01:26:51;96.70;;;38.17;;
22677;SDS011;26259;50.214;18.620;2022-09-09T01:29:20;111.00;;;38.87;;
22677;SDS011;26259;50.214;18.620;2022-09-09T01:31:57;125.10;;;40.97;;
22677;SDS011;26259;50.214;18.620;2022-09-09T01:34:25;124.50;;;39.67;;
22677;SDS011;26259;50.214;18.620;2022-09-09T01:36:57;113.43;;;38.60;;
22677;SDS011;26259;50.214;18.620;2022-09-09T01:39:29;105.33;;;37.63;;
22677;SDS011;26259;50.214;18.620;2022-09-09T01:41:56;95.93;;;37.80;;
22677;SDS011;26259;50.214;18.620;2022-09-09T01:44:22;85.40;;;36.50;;
22677;SDS011;26259;50.214;18.620;2022-09-09T01:46:50;73.23;;;34.40;;
22677;SDS011;26259;50.214;18.620;2022-09-09T01:49:15;78.00;;;35.27;;
22677;SDS011;26259;50.214;18.620;2022-09-09T01:51:42;86.33;;;39.47;;
22677;SDS011;26259;50.214;18.620;2022-09-09T01:54:10;68.93;;;34.03;;
22677;SDS011;26259;50.214;18.620;2022-09-09T01:59:35;116.57;;;38.27;;
22677;SDS011;26259;50.214;18.620;2022-09-09T02:07:06;77.90;;;33.23;;
22677;SDS011;26259;50.214;18.620;2022-09-09T02:09:57;66.43;;;31.90;;
22677;SDS011;26259;50.214;18.620;2022-09-09T02:12:27;75.30;;;33.60;;
22677;SDS011;26259;50.214;18.620;2022-09-09T02:14:56;79.43;;;35.13;;
22677;SDS011;26259;50.214;18.620;2022-09-09T02:17:29;59.53;;;31.47;;
22677;SDS011;26259;50.214;18.620;2022-09-09T02:20:05;88.60;;;37.43;;
22677;SDS011;26259;50.214;18.620;2022-09-09T02:22:34;92.67;;;37.57;;
22677;SDS011;26259;50.214;18.620;2022-09-09T02:25:05;84.53;;;35.43;;
22677;SDS011;26259;50.214;18.620;2022-09-09T02:27:33;90.07;;;34.83;;
22677;SDS011;26259;50.214;18.620;2022-09-09T02:30:00;90.60;;;36.37;;
22677;SDS011;26259;50.214;18.620;2022-09-09T02:32:27;92.43;;;37.70;;
22677;SDS011;26259;50.214;18.620;2022-09-09T02:34:58;81.37;;;36.43;;
22677;SDS011;26259;50.214;18.620;2022-09-09T02:37:31;98.50;;;36.17;;
22677;SDS011;26259;50.214;18.620;2022-09-09T02:40:01;90.47;;;32.90;;
22677;SDS011;26259;50.214;18.620;2022-09-09T02:42:31;89.10;;;34.60;;
22677;SDS011;26259;50.214;18.620;2022-09-09T02:44:57;85.50;;;34.53;;
22677;SDS011;26259;50.214;18.620;2022-09-09T02:47:29;74.13;;;33.07;;
22677;SDS011;26259;50.214;18.620;2022-09-09T02:58:04;64.33;;;31.27;;
22677;SDS011;26259;50.214;18.620;2022-09-09T03:00:33;74.80;;;31.77;;
22677;SDS011;26259;50.214;18.620;2022-09-09T03:03:00;56.43;;;28.20;;
22677;SDS011;26259;50.214;18.620;2022-09-09T03:05:28;109.07;;;34.13;;
22677;SDS011;26259;50.214;18.620;2022-09-09T03:07:53;97.53;;;33.50;;
22677;SDS011;26259;50.214;18.620;2022-09-09T03:10:19;383.00;;;46.10;;
22677;SDS011;26259;50.214;18.620;2022-09-09T03:12:45;59.93;;;29.33;;
22677;SDS011;26259;50.214;18.620;2022-09-09T03:15:10;70.90;;;29.97;;
22677;SDS011;26259;50.214;18.620;2022-09-09T03:17:36;85.33;;;31.00;;
22677;SDS011;26259;50.214;18.620;2022-09-09T03:20:02;79.07;;;30.60;;
22677;SDS011;26259;50.214;18.620;2022-09-09T03:22:28;71.40;;;29.80;;
22677;SDS011;26259;50.214;18.620;2022-09-09T03:24:54;75.57;;;29.90;;
22677;SDS011;26259;50.214;18.620;2022-09-09T03:27:20;56.97;;;27.63;;
22677;SDS011;26259;50.214;18.620;2022-09-09T03:29:45;75.23;;;29.50;;
22677;SDS011;26259;50.214;18.620;2022-09-09T03:32:11;61.30;;;28.17;;
22677;SDS011;26259;50.214;18.620;2022-09-09T03:34:37;66.87;;;29.67;;
22677;SDS011;26259;50.214;18.620;2022-09-09T03:37:05;60.67;;;29.87;;
22677;SDS011;26259;50.214;18.620;2022-09-09T03:39:31;84.47;;;35.53;;
22677;SDS011;26259;50.214;18.620;2022-09-09T03:41:57;90.93;;;35.53;;
22677;SDS011;26259;50.214;18.620;2022-09-09T03:44:22;87.93;;;37.53;;
22677;SDS011;26259;50.214;18.620;2022-09-09T03:46:48;79.03;;;36.00;;
22677;SDS011;26259;50.214;18.620;2022-09-09T03:49:13;72.97;;;35.43;;
22677;SDS011;26259;50.214;18.620;2022-09-09T03:51:40;87.17;;;36.10;;
22677;SDS011;26259;50.214;18.620;2022-09-09T03:54:06;82.67;;;37.57;;
22677;SDS011;26259;50.214;18.620;2022-09-09T03:56:33;94.80;;;38.83;;
22677;SDS011;26259;50.214;18.620;2022-09-09T03:58:59;80.27;;;35.70;;
22677;SDS011;26259;50.214;18.620;2022-09-09T04:01:25;91.03;;;36.30;;
22677;SDS011;26259;50.214;18.620;2022-09-09T04:03:50;77.67;;;35.10;;
22677;SDS011;26259;50.214;18.620;2022-09-09T04:06:17;69.53;;;32.30;;
22677;SDS011;26259;50.214;18.620;2022-09-09T04:08:44;66.07;;;30.83;;
22677;SDS011;26259;50.214;18.620;2022-09-09T04:11:10;95.80;;;34.47;;
22677;SDS011;26259;50.214;18.620;2022-09-09T04:13:36;231.00;;;43.47;;
22677;SDS011;26259;50.214;18.620;2022-09-09T04:16:06;65.90;;;29.83;;
22677;SDS011;26259;50.214;18.620;2022-09-09T04:18:34;84.23;;;32.17;;
22677;SDS011;26259;50.214;18.620;2022-09-09T04:20:59;89.77;;;35.40;;
22677;SDS011;26259;50.214;18.620;2022-09-09T04:23:27;85.93;;;34.43;;
22677;SDS011;26259;50.214;18.620;2022-09-09T04:25:56;94.13;;;38.30;;
22677;SDS011;26259;50.214;18.620;2022-09-09T04:28:24;105.20;;;41.23;;
22677;SDS011;26259;50.214;18.620;2022-09-09T04:30:50;118.23;;;44.10;;
22677;SDS011;26259;50.214;18.620;2022-09-09T04:33:17;133.07;;;47.30;;
22677;SDS011;26259;50.214;18.620;2022-09-09T04:35:43;131.33;;;45.47;;
22677;SDS011;26259;50.214;18.620;2022-09-09T04:38:12;133.43;;;46.40;;
22677;SDS011;26259;50.214;18.620;2022-09-09T04:40:37;160.23;;;52.17;;
22677;SDS011;26259;50.214;18.620;2022-09-09T04:43:07;173.50;;;53.00;;
22677;SDS011;26259;50.214;18.620;2022-09-09T04:45:33;169.63;;;52.57;;
22677;SDS011;26259;50.214;18.620;2022-09-09T04:47:59;185.43;;;57.40;;
22677;SDS011;26259;50.214;18.620;2022-09-09T04:50:25;153.57;;;52.80;;
22677;SDS011;26259;50.214;18.620;2022-09-09T04:52:51;181.17;;;55.07;;
22677;SDS011;26259;50.214;18.620;2022-09-09T04:55:16;168.63;;;54.50;;
22677;SDS011;26259;50.214;18.620;2022-09-09T04:57:42;162.10;;;50.50;;
22677;SDS011;26259;50.214;18.620;2022-09-09T05:00:08;196.43;;;50.33;;
22677;SDS011;26259;50.214;18.620;2022-09-09T05:02:37;154.03;;;44.43;;
22677;SDS011;26259;50.214;18.620;2022-09-09T05:05:03;130.20;;;40.63;;
22677;SDS011;26259;50.214;18.620;2022-09-09T05:07:30;123.23;;;40.60;;
22677;SDS011;26259;50.214;18.620;2022-09-09T05:09:56;138.37;;;40.80;;
22677;SDS011;26259;50.214;18.620;2022-09-09T05:12:22;128.30;;;41.20;;
22677;SDS011;26259;50.214;18.620;2022-09-09T05:14:50;127.77;;;38.87;;
22677;SDS011;26259;50.214;18.620;2022-09-09T05:17:16;114.43;;;39.33;;
22677;SDS011;26259;50.214;18.620;2022-09-09T05:19:42;127.37;;;42.10;;
22677;SDS011;26259;50.214;18.620;2022-09-09T05:22:09;139.47;;;42.90;;
22677;SDS011;26259;50.214;18.620;2022-09-09T05:24:36;120.23;;;42.73;;
22677;SDS011;26259;50.214;18.620;2022-09-09T05:27:03;131.93;;;47.93;;
22677;SDS011;26259;50.214;18.620;2022-09-09T05:29:30;173.97;;;57.03;;
22677;SDS011;26259;50.214;18.620;2022-09-09T05:31:58;142.57;;;51.83;;
22677;SDS011;26259;50.214;18.620;2022-09-09T05:34:24;152.33;;;53.67;;
22677;SDS011;26259;50.214;18.620;2022-09-09T05:36:50;165.40;;;56.00;;
22677;SDS011;26259;50.214;18.620;2022-09-09T05:39:17;155.90;;;57.07;;
22677;SDS011;26259;50.214;18.620;2022-09-09T05:41:42;132.90;;;53.80;;
22677;SDS011;26259;50.214;18.620;2022-09-09T05:44:08;164.00;;;57.53;;
22677;SDS011;26259;50.214;18.620;2022-09-09T05:46:33;139.10;;;53.00;;
22677;SDS011;26259;50.214;18.620;2022-09-09T05:48:59;145.23;;;54.23;;
22677;SDS011;26259;50.214;18.620;2022-09-09T05:51:25;161.90;;;59.13;;
22677;SDS011;26259;50.214;18.620;2022-09-09T05:53:54;134.80;;;53.17;;
22677;SDS011;26259;50.214;18.620;2022-09-09T05:56:24;121.90;;;49.07;;
22677;SDS011;26259;50.214;18.620;2022-09-09T05:58:51;133.20;;;48.40;;
22677;SDS011;26259;50.214;18.620;2022-09-09T06:01:24;112.03;;;46.30;;
22677;SDS011;26259;50.214;18.620;2022-09-09T06:03:55;80.60;;;41.20;;
22677;SDS011;26259;50.214;18.620;2022-09-09T06:06:22;101.43;;;46.67;;
22677;SDS011;26259;50.214;18.620;2022-09-09T06:08:55;94.97;;;43.70;;
22677;SDS011;26259;50.214;18.620;2022-09-09T06:11:26;100.80;;;43.43;;
22677;SDS011;26259;50.214;18.620;2022-09-09T06:13:56;92.03;;;43.13;;
22677;SDS011;26259;50.214;18.620;2022-09-09T06:16:22;86.90;;;40.03;;
22677;SDS011;26259;50.214;18.620;2022-09-09T06:18:50;84.10;;;39.37;;
22677;SDS011;26259;50.214;18.620;2022-09-09T06:21:20;85.77;;;39.33;;
22677;SDS011;26259;50.214;18.620;2022-09-09T06:23:47;65.03;;;35.57;;
22677;SDS011;26259;50.214;18.620;2022-09-09T06:26:14;61.27;;;35.33;;
22677;SDS011;26259;50.214;18.620;2022-09-09T06:28:44;73.43;;;38.10;;
22677;SDS011;26259;50.214;18.620;2022-09-09T06:31:11;80.57;;;39.70;;
22677;SDS011;26259;50.214;18.620;2022-09-09T06:33:39;73.87;;;35.80;;
22677;SDS011;26259;50.214;18.620;2022-09-09T06:36:15;71.77;;;34.67;;
22677;SDS011;26259;50.214;18.620;2022-09-09T06:38:46;72.03;;;33.97;;
22677;SDS011;26259;50.214;18.620;2022-09-09T06:41:13;68.33;;;34.27;;
22677;SDS011;26259;50.214;18.620;2022-09-09T06:43:40;52.33;;;28.53;;
22677;SDS011;26259;50.214;18.620;2022-09-09T06:46:08;53.47;;;28.93;;
22677;SDS011;26259;50.214;18.620;2022-09-09T06:48:35;55.47;;;28.90;;
22677;SDS011;26259;50.214;18.620;2022-09-09T06:51:05;45.77;;;28.03;;
22677;SDS011;26259;50.214;18.620;2022-09-09T06:53:32;44.07;;;25.60;;
22677;SDS011;26259;50.214;18.620;2022-09-09T06:56:20;38.23;;;23.27;;
22677;SDS011;26259;50.214;18.620;2022-09-09T06:58:49;46.60;;;24.33;;
22677;SDS011;26259;50.214;18.620;2022-09-09T07:01:17;36.27;;;22.33;;
22677;SDS011;26259;50.214;18.620;2022-09-09T07:03:48;32.30;;;21.03;;
22677;SDS011;26259;50.214;18.620;2022-09-09T07:06:16;27.93;;;18.07;;
22677;SDS011;26259;50.214;18.620;2022-09-09T07:08:52;34.43;;;20.40;;
22677;SDS011;26259;50.214;18.620;2022-09-09T07:11:20;36.57;;;20.07;;
22677;SDS011;26259;50.214;18.620;2022-09-09T07:13:49;23.20;;;16.97;;
22677;SDS011;26259;50.214;18.620;2022-09-09T07:16:16;27.47;;;18.37;;
22677;SDS011;26259;50.214;18.620;2022-09-09T07:18:42;26.57;;;16.60;;
22677;SDS011;26259;50.214;18.620;2022-09-09T07:21:10;26.63;;;17.30;;
22677;SDS011;26259;50.214;18.620;2022-09-09T07:23:37;22.27;;;14.97;;
22677;SDS011;26259;50.214;18.620;2022-09-09T07:26:07;23.13;;;15.40;;
22677;SDS011;26259;50.214;18.620;2022-09-09T07:28:37;22.97;;;15.17;;
22677;SDS011;26259;50.214;18.620;2022-09-09T07:31:03;22.77;;;15.30;;
22677;SDS011;26259;50.214;18.620;2022-09-09T07:33:30;25.63;;;14.93;;
22677;SDS011;26259;50.214;18.620;2022-09-09T07:36:05;20.67;;;13.03;;
22677;SDS011;26259;50.214;18.620;2022-09-09T07:38:37;24.33;;;13.00;;
22677;SDS011;26259;50.214;18.620;2022-09-09T07:41:07;19.43;;;12.30;;
22677;SDS011;26259;50.214;18.620;2022-09-09T07:43:40;16.73;;;12.30;;
22677;SDS011;26259;50.214;18.620;2022-09-09T07:46:08;20.67;;;12.80;;
22677;SDS011;26259;50.214;18.620;2022-09-09T07:48:35;20.57;;;13.17;;
22677;SDS011;26259;50.214;18.620;2022-09-09T07:51:11;17.33;;;11.80;;
22677;SDS011;26259;50.214;18.620;2022-09-09T07:53:42;19.50;;;13.80;;
22677;SDS011;26259;50.214;18.620;2022-09-09T07:56:09;13.47;;;9.83;;
22677;SDS011;26259;50.214;18.620;2022-09-09T07:58:37;10.90;;;8.73;;
22677;SDS011;26259;50.214;18.620;2022-09-09T08:01:07;12.10;;;7.77;;
22677;SDS011;26259;50.214;18.620;2022-09-09T08:03:35;15.93;;;7.13;;
22677;SDS011;26259;50.214;18.620;2022-09-09T08:06:01;9.40;;;6.03;;
22677;SDS011;26259;50.214;18.620;2022-09-09T08:08:33;9.60;;;6.37;;
22677;SDS011;26259;50.214;18.620;2022-09-09T08:11:06;12.33;;;6.40;;
22677;SDS011;26259;50.214;18.620;2022-09-09T08:13:35;7.77;;;4.90;;
22677;SDS011;26259;50.214;18.620;2022-09-09T08:16:11;4.77;;;4.20;;
22677;SDS011;26259;50.214;18.620;2022-09-09T08:19:02;8.17;;;3.90;;
22677;SDS011;26259;50.214;18.620;2022-09-09T08:21:29;4.20;;;3.90;;
22677;SDS011;26259;50.214;18.620;2022-09-09T08:23:57;7.03;;;3.40;;
22677;SDS011;26259;50.214;18.620;2022-09-09T08:26:28;9.40;;;3.70;;
22677;SDS011;26259;50.214;18.620;2022-09-09T08:28:57;6.93;;;3.20;;
22677;SDS011;26259;50.214;18.620;2022-09-09T08:33:57;5.87;;;3.30;;
22677;SDS011;26259;50.214;18.620;2022-09-09T08:36:25;5.50;;;3.00;;
22677;SDS011;26259;50.214;18.620;2022-09-09T08:38:53;9.13;;;3.63;;
22677;SDS011;26259;50.214;18.620;2022-09-09T08:49:14;6.37;;;3.63;;
22677;SDS011;26259;50.214;18.620;2022-09-09T08:51:50;8.27;;;4.00;;
22677;SDS011;26259;50.214;18.620;2022-09-09T08:54:20;5.67;;;3.30;;
22677;SDS011;26259;50.214;18.620;2022-09-09T08:56:46;8.10;;;4.13;;
22677;SDS011;26259;50.214;18.620;2022-09-09T08:59:13;6.40;;;3.07;;
22677;SDS011;26259;50.214;18.620;2022-09-09T09:04:58;5.80;;;3.30;;
22677;SDS011;26259;50.214;18.620;2022-09-09T09:08:06;4.60;;;2.90;;
22677;SDS011;26259;50.214;18.620;2022-09-09T09:10:56;5.97;;;2.80;;
22677;SDS011;26259;50.214;18.620;2022-09-09T09:13:35;3.03;;;2.40;;
22677;SDS011;26259;50.214;18.620;2022-09-09T09:16:06;3.30;;;2.40;;
22677;SDS011;26259;50.214;18.620;2022-09-09T09:18:42;10.97;;;2.60;;
22677;SDS011;26259;50.214;18.620;2022-09-09T09:21:16;5.73;;;2.77;;
22677;SDS011;26259;50.214;18.620;2022-09-09T09:24:16;3.03;;;2.43;;
22677;SDS011;26259;50.214;18.620;2022-09-09T09:26:45;6.63;;;2.63;;
22677;SDS011;26259;50.214;18.620;2022-09-09T09:29:12;3.47;;;3.17;;
22677;SDS011;26259;50.214;18.620;2022-09-09T09:31:41;5.83;;;3.10;;
22677;SDS011;26259;50.214;18.620;2022-09-09T09:34:13;3.30;;;2.40;;
22677;SDS011;26259;50.214;18.620;2022-09-09T09:36:42;5.20;;;2.50;;
22677;SDS011;26259;50.214;18.620;2022-09-09T09:39:21;3.43;;;2.17;;
22677;SDS011;26259;50.214;18.620;2022-09-09T09:41:48;3.23;;;2.20;;
22677;SDS011;26259;50.214;18.620;2022-09-09T09:47:06;4.00;;;2.10;;
22677;SDS011;26259;50.214;18.620;2022-09-09T09:49:35;4.77;;;2.23;;
22677;SDS011;26259;50.214;18.620;2022-09-09T09:52:05;6.03;;;2.33;;
22677;SDS011;26259;50.214;18.620;2022-09-09T09:54:39;7.53;;;2.53;;
22677;SDS011;26259;50.214;18.620;2022-09-09T09:59:41;7.77;;;2.83;;
22677;SDS011;26259;50.214;18.620;2022-09-09T10:04:38;7.23;;;2.80;;
22677;SDS011;26259;50.214;18.620;2022-09-09T10:07:10;4.23;;;2.37;;
22677;SDS011;26259;50.214;18.620;2022-09-09T10:09:47;7.77;;;2.50;;
22677;SDS011;26259;50.214;18.620;2022-09-09T10:12:23;3.97;;;2.20;;
22677;SDS011;26259;50.214;18.620;2022-09-09T10:26:10;5.63;;;2.57;;
22677;SDS011;26259;50.214;18.620;2022-09-09T10:43:08;4.57;;;2.20;;
22677;SDS011;26259;50.214;18.620;2022-09-09T10:46:06;5.10;;;2.03;;
22677;SDS011;26259;50.214;18.620;2022-09-09T10:49:28;6.67;;;1.97;;
22677;SDS011;26259;50.214;18.620;2022-09-09T10:52:14;2.73;;;1.57;;
22677;SDS011;26259;50.214;18.620;2022-09-09T10:57:57;4.80;;;1.90;;
22677;SDS011;26259;50.214;18.620;2022-09-09T11:00:20;4.93;;;1.60;;
22677;SDS011;26259;50.214;18.620;2022-09-09T11:02:55;5.70;;;2.10;;
22677;SDS011;26259;50.214;18.620;2022-09-09T11:08:22;7.60;;;1.83;;
22677;SDS011;26259;50.214;18.620;2022-09-09T11:13:49;2.67;;;1.30;;
22677;SDS011;26259;50.214;18.620;2022-09-09T11:21:53;2.97;;;1.30;;
22677;SDS011;26259;50.214;18.620;2022-09-09T11:24:43;4.07;;;1.20;;
22677;SDS011;26259;50.214;18.620;2022-09-09T11:27:41;5.23;;;1.10;;
22677;SDS011;26259;50.214;18.620;2022-09-09T11:39:02;3.50;;;1.27;;
22677;SDS011;26259;50.214;18.620;2022-09-09T11:41:35;6.60;;;1.50;;
22677;SDS011;26259;50.214;18.620;2022-09-09T11:44:09;2.67;;;0.80;;
22677;SDS011;26259;50.214;18.620;2022-09-09T11:46:51;5.30;;;0.77;;
22677;SDS011;26259;50.214;18.620;2022-09-09T11:49:30;5.13;;;1.20;;
22677;SDS011;26259;50.214;18.620;2022-09-09T11:52:19;1.40;;;1.00;;
22677;SDS011;26259;50.214;18.620;2022-09-09T11:54:48;5.07;;;1.10;;
22677;SDS011;26259;50.214;18.620;2022-09-09T11:57:25;2.03;;;0.90;;
22677;SDS011;26259;50.214;18.620;2022-09-09T11:59:57;3.88;;;1.20;;
22677;SDS011;26259;50.214;18.620;2022-09-09T12:02:24;4.68;;;1.10;;
22677;SDS011;26259;50.214;18.620;2022-09-09T12:12:50;1.93;;;0.70;;
22677;SDS011;26259;50.214;18.620;2022-09-09T12:15:21;3.63;;;1.03;;
22677;SDS011;26259;50.214;18.620;2022-09-09T12:17:54;2.53;;;0.90;;
22677;SDS011;26259;50.214;18.620;2022-09-09T12:25:59;2.00;;;1.00;;
22677;SDS011;26259;50.214;18.620;2022-09-09T12:28:49;1.17;;;0.80;;
22677;SDS011;26259;50.214;18.620;2022-09-09T12:31:33;1.67;;;0.90;;
22677;SDS011;26259;50.214;18.620;2022-09-09T12:34:29;3.40;;;0.90;;
22677;SDS011;26259;50.214;18.620;2022-09-09T12:37:52;2.73;;;0.90;;
22677;SDS011;26259;50.214;18.620;2022-09-09T12:40:02;1.23;;;0.70;;
22677;SDS011;26259;50.214;18.620;2022-09-09T12:42:48;3.03;;;0.80;;
22677;SDS011;26259;50.214;18.620;2022-09-09T12:45:16;2.23;;;0.77;;
22677;SDS011;26259;50.214;18.620;2022-09-09T12:47:51;2.67;;;0.70;;
22677;SDS011;26259;50.214;18.620;2022-09-09T12:50:22;1.73;;;0.80;;
22677;SDS011;26259;50.214;18.620;2022-09-09T12:52:56;3.25;;;0.90;;
22677;SDS011;26259;50.214;18.620;2022-09-09T12:55:30;2.10;;;1.00;;
22677;SDS011;26259;50.214;18.620;2022-09-09T12:57:58;2.63;;;1.10;;
22677;SDS011;26259;50.214;18.620;2022-09-09T13:00:25;1.47;;;0.90;;
22677;SDS011;26259;50.214;18.620;2022-09-09T13:03:01;1.80;;;0.80;;
22677;SDS011;26259;50.214;18.620;2022-09-09T13:05:41;2.03;;;1.17;;
22677;SDS011;26259;50.214;18.620;2022-09-09T13:08:11;1.10;;;1.00;;
22677;SDS011;26259;50.214;18.620;2022-09-09T13:10:40;1.83;;;1.17;;
22677;SDS011;26259;50.214;18.620;2022-09-09T13:13:33;2.27;;;0.70;;
22677;SDS011;26259;50.214;18.620;2022-09-09T13:16:01;1.27;;;0.60;;
22677;SDS011;26259;50.214;18.620;2022-09-09T13:18:30;0.77;;;0.70;;
22677;SDS011;26259;50.214;18.620;2022-09-09T13:21:00;3.73;;;0.93;;
22677;SDS011;26259;50.214;18.620;2022-09-09T13:23:28;1.93;;;1.07;;
22677;SDS011;26259;50.214;18.620;2022-09-09T13:25:58;1.77;;;1.07;;
22677;SDS011;26259;50.214;18.620;2022-09-09T13:28:27;1.30;;;0.83;;
22677;SDS011;26259;50.214;18.620;2022-09-09T13:30:59;1.53;;;0.80;;
22677;SDS011;26259;50.214;18.620;2022-09-09T13:33:43;1.80;;;1.20;;
22677;SDS011;26259;50.214;18.620;2022-09-09T13:36:09;1.00;;;0.90;;
22677;SDS011;26259;50.214;18.620;2022-09-09T13:38:38;3.20;;;1.20;;
22677;SDS011;26259;50.214;18.620;2022-09-09T13:41:19;7.87;;;1.40;;
22677;SDS011;26259;50.214;18.620;2022-09-09T13:43:50;3.67;;;0.93;;
22677;SDS011;26259;50.214;18.620;2022-09-09T13:51:36;0.80;;;0.80;;
22677;SDS011;26259;50.214;18.620;2022-09-09T13:54:10;1.80;;;0.90;;
22677;SDS011;26259;50.214;18.620;2022-09-09T13:56:38;5.93;;;1.27;;
22677;SDS011;26259;50.214;18.620;2022-09-09T13:59:05;2.93;;;1.03;;
22677;SDS011;26259;50.214;18.620;2022-09-09T14:01:35;1.88;;;0.98;;
22677;SDS011;26259;50.214;18.620;2022-09-09T14:04:02;2.43;;;1.07;;
22677;SDS011;26259;50.214;18.620;2022-09-09T14:06:30;4.27;;;0.97;;
22677;SDS011;26259;50.214;18.620;2022-09-09T14:08:57;1.40;;;0.93;;
22677;SDS011;26259;50.214;18.620;2022-09-09T14:11:23;1.13;;;1.00;;
22677;SDS011;26259;50.214;18.620;2022-09-09T14:13:49;6.67;;;1.40;;
22677;SDS011;26259;50.214;18.620;2022-09-09T14:16:15;2.20;;;1.05;;
22677;SDS011;26259;50.214;18.620;2022-09-09T14:18:42;2.35;;;1.05;;
22677;SDS011;26259;50.214;18.620;2022-09-09T14:21:09;3.58;;;0.95;;
22677;SDS011;26259;50.214;18.620;2022-09-09T14:23:34;1.03;;;0.93;;
22677;SDS011;26259;50.214;18.620;2022-09-09T14:26:00;3.80;;;1.10;;
22677;SDS011;26259;50.214;18.620;2022-09-09T14:28:26;1.00;;;0.70;;
22677;SDS011;26259;50.214;18.620;2022-09-09T14:30:53;1.43;;;0.90;;
22677;SDS011;26259;50.214;18.620;2022-09-09T14:33:19;1.37;;;1.00;;
22677;SDS011;26259;50.214;18.620;2022-09-09T14:35:47;1.47;;;0.80;;
22677;SDS011;26259;50.214;18.620;2022-09-09T14:38:13;0.70;;;0.70;;
22677;SDS011;26259;50.214;18.620;2022-09-09T14:40:39;1.53;;;1.00;;
22677;SDS011;26259;50.214;18.620;2022-09-09T14:43:05;2.37;;;1.10;;
22677;SDS011;26259;50.214;18.620;2022-09-09T14:45:31;1.30;;;1.00;;
22677;SDS011;26259;50.214;18.620;2022-09-09T14:47:57;1.13;;;0.90;;
22677;SDS011;26259;50.214;18.620;2022-09-09T14:50:22;2.97;;;0.83;;
22677;SDS011;26259;50.214;18.620;2022-09-09T14:52:49;1.47;;;1.10;;
22677;SDS011;26259;50.214;18.620;2022-09-09T14:55:15;3.27;;;1.10;;
22677;SDS011;26259;50.214;18.620;2022-09-09T14:57:41;3.80;;;1.10;;
22677;SDS011;26259;50.214;18.620;2022-09-09T15:00:08;4.03;;;1.00;;
22677;SDS011;26259;50.214;18.620;2022-09-09T15:02:34;3.17;;;1.10;;
22677;SDS011;26259;50.214;18.620;2022-09-09T15:05:00;2.57;;;1.10;;
22677;SDS011;26259;50.214;18.620;2022-09-09T15:07:27;5.37;;;1.70;;
22677;SDS011;26259;50.214;18.620;2022-09-09T15:09:53;6.03;;;1.33;;
22677;SDS011;26259;50.214;18.620;2022-09-09T15:12:19;3.80;;;1.80;;
22677;SDS011;26259;50.214;18.620;2022-09-09T15:14:45;2.80;;;1.33;;
22677;SDS011;26259;50.214;18.620;2022-09-09T15:17:11;2.10;;;0.93;;
22677;SDS011;26259;50.214;18.620;2022-09-09T15:19:37;0.93;;;0.80;;
22677;SDS011;26259;50.214;18.620;2022-09-09T15:22:03;2.57;;;1.13;;
22677;SDS011;26259;50.214;18.620;2022-09-09T15:24:30;1.87;;;1.00;;
22677;SDS011;26259;50.214;18.620;2022-09-09T15:26:57;2.27;;;1.10;;
22677;SDS011;26259;50.214;18.620;2022-09-09T15:29:23;5.83;;;2.10;;
22677;SDS011;26259;50.214;18.620;2022-09-09T15:31:49;7.43;;;1.77;;
22677;SDS011;26259;50.214;18.620;2022-09-09T15:34:14;4.50;;;1.60;;
22677;SDS011;26259;50.214;18.620;2022-09-09T15:36:44;13.93;;;3.20;;
22677;SDS011;26259;50.214;18.620;2022-09-09T15:39:16;18.60;;;5.57;;
22677;SDS011;26259;50.214;18.620;2022-09-09T15:41:45;5.13;;;1.30;;
22677;SDS011;26259;50.214;18.620;2022-09-09T15:44:12;5.27;;;2.83;;
22677;SDS011;26259;50.214;18.620;2022-09-09T15:47:12;3.10;;;1.40;;
22677;SDS011;26259;50.214;18.620;2022-09-09T15:49:30;8.13;;;1.47;;
22677;SDS011;26259;50.214;18.620;2022-09-09T15:51:59;4.17;;;1.47;;
22677;SDS011;26259;50.214;18.620;2022-09-09T15:54:30;1.20;;;1.00;;
22677;SDS011;26259;50.214;18.620;2022-09-09T15:56:59;3.30;;;1.47;;
22677;SDS011;26259;50.214;18.620;2022-09-09T15:59:27;2.40;;;1.33;;
22677;SDS011;26259;50.214;18.620;2022-09-09T16:01:54;4.10;;;1.80;;
22677;SDS011;26259;50.214;18.620;2022-09-09T16:04:21;4.93;;;2.97;;
22677;SDS011;26259;50.214;18.620;2022-09-09T16:09:18;3.20;;;1.80;;
22677;SDS011;26259;50.214;18.620;2022-09-09T16:11:44;2.73;;;1.97;;
22677;SDS011;26259;50.214;18.620;2022-09-09T16:14:11;8.20;;;3.40;;
22677;SDS011;26259;50.214;18.620;2022-09-09T16:16:38;9.03;;;4.20;;
22677;SDS011;26259;50.214;18.620;2022-09-09T16:19:05;11.13;;;4.63;;
22677;SDS011;26259;50.214;18.620;2022-09-09T16:21:33;4.87;;;2.87;;
22677;SDS011;26259;50.214;18.620;2022-09-09T16:24:00;5.50;;;1.90;;
22677;SDS011;26259;50.214;18.620;2022-09-09T16:26:28;3.47;;;1.87;;
22677;SDS011;26259;50.214;18.620;2022-09-09T16:28:56;4.40;;;2.73;;
22677;SDS011;26259;50.214;18.620;2022-09-09T16:31:24;6.37;;;2.80;;
22677;SDS011;26259;50.214;18.620;2022-09-09T16:33:50;6.43;;;3.77;;
22677;SDS011;26259;50.214;18.620;2022-09-09T16:36:17;9.17;;;5.30;;
22677;SDS011;26259;50.214;18.620;2022-09-09T16:38:47;7.27;;;5.10;;
22677;SDS011;26259;50.214;18.620;2022-09-09T16:41:16;4.60;;;2.80;;
22677;SDS011;26259;50.214;18.620;2022-09-09T16:43:42;3.90;;;2.33;;
22677;SDS011;26259;50.214;18.620;2022-09-09T16:46:12;7.03;;;2.30;;
22677;SDS011;26259;50.214;18.620;2022-09-09T16:48:38;5.33;;;2.10;;
22677;SDS011;26259;50.214;18.620;2022-09-09T16:51:05;5.60;;;2.60;;
22677;SDS011;26259;50.214;18.620;2022-09-09T16:53:33;5.70;;;2.40;;
22677;SDS011;26259;50.214;18.620;2022-09-09T16:56:09;4.03;;;2.43;;
22677;SDS011;26259;50.214;18.620;2022-09-09T16:58:51;5.53;;;2.00;;
22677;SDS011;26259;50.214;18.620;2022-09-09T17:01:23;6.83;;;2.90;;